sensor_id;sensor_type;location;lat;lon;timestamp;pressure;altitude;pressure_sealevel;temperature;humidity
77017;BME280;65949;53.132;17.930;2024-01-11T00:01:20;102193.70;;;-3.86;98.69
77017;BME280;65949;53.132;17.930;2024-01-11T00:03:47;102206.90;;;-3.84;98.46
77017;BME280;65949;53.132;17.930;2024-01-11T00:06:13;102204.27;;;-3.83;98.72
77017;BME280;65949;53.132;17.930;2024-01-11T00:08:40;102199.73;;;-3.81;99.07
77017;BME280;65949;53.132;17.930;2024-01-11T00:11:06;102189.86;;;-3.81;98.81
77017;BME280;65949;53.132;17.930;2024-01-11T00:13:33;102189.96;;;-3.78;99.01
77017;BME280;65949;53.132;17.930;2024-01-11T00:15:59;102193.48;;;-3.77;98.93
77017;BME280;65949;53.132;17.930;2024-01-11T00:18:26;102188.30;;;-3.77;99.05
77017;BME280;65949;53.132;17.930;2024-01-11T00:20:53;102173.38;;;-3.77;99.19
77017;BME280;65949;53.132;17.930;2024-01-11T00:23:20;102177.29;;;-3.75;99.18
77017;BME280;65949;53.132;17.930;2024-01-11T00:25:46;102181.59;;;-3.76;99.23
77017;BME280;65949;53.132;17.930;2024-01-11T00:28:13;102168.54;;;-3.76;99.06
77017;BME280;65949;53.132;17.930;2024-01-11T00:30:39;102166.10;;;-3.75;99.30
77017;BME280;65949;53.132;17.930;2024-01-11T00:33:06;102175.11;;;-3.75;99.27
77017;BME280;65949;53.132;17.930;2024-01-11T00:35:33;102179.20;;;-3.75;99.54
77017;BME280;65949;53.132;17.930;2024-01-11T00:37:59;102170.71;;;-3.75;99.69
77017;BME280;65949;53.132;17.930;2024-01-11T00:40:26;102151.04;;;-3.76;99.72
77017;BME280;65949;53.132;17.930;2024-01-11T00:42:53;102129.52;;;-3.74;99.72
77017;BME280;65949;53.132;17.930;2024-01-11T00:45:19;102118.70;;;-3.73;99.55
77017;BME280;65949;53.132;17.930;2024-01-11T00:47:46;102109.21;;;-3.71;99.66
77017;BME280;65949;53.132;17.930;2024-01-11T00:50:12;102106.41;;;-3.72;99.90
77017;BME280;65949;53.132;17.930;2024-01-11T00:52:39;102115.75;;;-3.72;100.00
77017;BME280;65949;53.132;17.930;2024-01-11T00:55:06;102114.30;;;-3.71;99.90
77017;BME280;65949;53.132;17.930;2024-01-11T00:57:33;102124.98;;;-3.71;99.98
77017;BME280;65949;53.132;17.930;2024-01-11T01:00:00;102136.89;;;-3.69;99.91
77017;BME280;65949;53.132;17.930;2024-01-11T01:02:26;102127.61;;;-3.67;99.94
77017;BME280;65949;53.132;17.930;2024-01-11T01:04:53;102128.03;;;-3.64;99.84
77017;BME280;65949;53.132;17.930;2024-01-11T01:07:19;102125.10;;;-3.62;99.96
77017;BME280;65949;53.132;17.930;2024-01-11T01:09:46;102130.81;;;-3.61;99.98
77017;BME280;65949;53.132;17.930;2024-01-11T01:12:13;102137.20;;;-3.60;99.99
77017;BME280;65949;53.132;17.930;2024-01-11T01:14:39;102138.06;;;-3.60;99.93
77017;BME280;65949;53.132;17.930;2024-01-11T01:17:06;102131.97;;;-3.58;99.86
77017;BME280;65949;53.132;17.930;2024-01-11T01:19:32;102129.17;;;-3.57;99.93
77017;BME280;65949;53.132;17.930;2024-01-11T01:21:59;102127.46;;;-3.57;99.97
77017;BME280;65949;53.132;17.930;2024-01-11T01:24:26;102123.61;;;-3.55;99.97
77017;BME280;65949;53.132;17.930;2024-01-11T01:26:52;102119.89;;;-3.54;99.86
77017;BME280;65949;53.132;17.930;2024-01-11T01:29:19;102123.66;;;-3.52;99.95
77017;BME280;65949;53.132;17.930;2024-01-11T01:31:46;102137.05;;;-3.50;99.80
77017;BME280;65949;53.132;17.930;2024-01-11T01:34:12;102131.38;;;-3.47;99.93
77017;BME280;65949;53.132;17.930;2024-01-11T01:36:41;102120.70;;;-3.45;99.94
77017;BME280;65949;53.132;17.930;2024-01-11T01:39:07;102116.88;;;-3.44;99.95
77017;BME280;65949;53.132;17.930;2024-01-11T01:41:34;102125.63;;;-3.43;99.97
77017;BME280;65949;53.132;17.930;2024-01-11T01:44:00;102129.52;;;-3.41;100.00
77017;BME280;65949;53.132;17.930;2024-01-11T01:46:27;102131.45;;;-3.38;100.00
77017;BME280;65949;53.132;17.930;2024-01-11T01:48:56;102140.05;;;-3.35;100.00
77017;BME280;65949;53.132;17.930;2024-01-11T01:51:26;102139.86;;;-3.35;100.00
77017;BME280;65949;53.132;17.930;2024-01-11T01:53:53;102135.20;;;-3.32;100.00
77017;BME280;65949;53.132;17.930;2024-01-11T01:56:23;102144.79;;;-3.29;100.00
77017;BME280;65949;53.132;17.930;2024-01-11T01:58:51;102153.60;;;-3.26;100.00
77017;BME280;65949;53.132;17.930;2024-01-11T02:01:20;102153.94;;;-3.22;100.00
77017;BME280;65949;53.132;17.930;2024-01-11T02:03:50;102153.04;;;-3.18;100.00
77017;BME280;65949;53.132;17.930;2024-01-11T02:06:18;102150.63;;;-3.13;100.00
77017;BME280;65949;53.132;17.930;2024-01-11T02:08:45;102144.85;;;-3.09;100.00
77017;BME280;65949;53.132;17.930;2024-01-11T02:11:13;102143.35;;;-3.05;100.00
77017;BME280;65949;53.132;17.930;2024-01-11T02:13:39;102147.83;;;-3.00;100.00
77017;BME280;65949;53.132;17.930;2024-01-11T02:16:07;102144.88;;;-2.96;100.00
77017;BME280;65949;53.132;17.930;2024-01-11T02:18:33;102142.40;;;-2.91;100.00
77017;BME280;65949;53.132;17.930;2024-01-11T02:21:02;102139.95;;;-2.86;100.00
77017;BME280;65949;53.132;17.930;2024-01-11T02:23:31;102140.02;;;-2.81;100.00
77017;BME280;65949;53.132;17.930;2024-01-11T02:25:58;102140.55;;;-2.75;100.00
77017;BME280;65949;53.132;17.930;2024-01-11T02:28:24;102143.01;;;-2.70;100.00
77017;BME280;65949;53.132;17.930;2024-01-11T02:30:51;102135.66;;;-2.64;100.00
77017;BME280;65949;53.132;17.930;2024-01-11T02:33:18;102127.82;;;-2.57;100.00
77017;BME280;65949;53.132;17.930;2024-01-11T02:35:45;102117.70;;;-2.51;100.00
77017;BME280;65949;53.132;17.930;2024-01-11T02:38:11;102110.85;;;-2.45;100.00
77017;BME280;65949;53.132;17.930;2024-01-11T02:40:39;102106.54;;;-2.38;100.00
77017;BME280;65949;53.132;17.930;2024-01-11T02:43:10;102099.29;;;-2.33;100.00
77017;BME280;65949;53.132;17.930;2024-01-11T02:45:37;102105.76;;;-2.28;100.00
77017;BME280;65949;53.132;17.930;2024-01-11T02:48:04;102105.61;;;-2.22;100.00
77017;BME280;65949;53.132;17.930;2024-01-11T02:50:32;102103.85;;;-2.18;100.00
77017;BME280;65949;53.132;17.930;2024-01-11T02:52:58;102105.60;;;-2.14;100.00
77017;BME280;65949;53.132;17.930;2024-01-11T02:55:25;102101.38;;;-2.11;100.00
77017;BME280;65949;53.132;17.930;2024-01-11T02:57:51;102095.05;;;-2.09;100.00
77017;BME280;65949;53.132;17.930;2024-01-11T03:00:18;102090.42;;;-2.06;100.00
77017;BME280;65949;53.132;17.930;2024-01-11T03:02:45;102089.60;;;-2.03;100.00
77017;BME280;65949;53.132;17.930;2024-01-11T03:05:12;102076.62;;;-2.01;100.00
77017;BME280;65949;53.132;17.930;2024-01-11T03:07:39;102069.22;;;-1.98;100.00
77017;BME280;65949;53.132;17.930;2024-01-11T03:10:06;102073.62;;;-1.96;100.00
77017;BME280;65949;53.132;17.930;2024-01-11T03:12:32;102074.67;;;-1.94;100.00
77017;BME280;65949;53.132;17.930;2024-01-11T03:14:59;102076.31;;;-1.92;100.00
77017;BME280;65949;53.132;17.930;2024-01-11T03:17:27;102064.07;;;-1.90;100.00
77017;BME280;65949;53.132;17.930;2024-01-11T03:19:54;102049.12;;;-1.89;100.00
77017;BME280;65949;53.132;17.930;2024-01-11T03:22:21;102038.95;;;-1.87;100.00
77017;BME280;65949;53.132;17.930;2024-01-11T03:24:47;102034.79;;;-1.86;100.00
77017;BME280;65949;53.132;17.930;2024-01-11T03:27:14;102020.41;;;-1.84;100.00
77017;BME280;65949;53.132;17.930;2024-01-11T03:29:40;102017.73;;;-1.83;100.00
77017;BME280;65949;53.132;17.930;2024-01-11T03:32:07;102017.68;;;-1.82;100.00
77017;BME280;65949;53.132;17.930;2024-01-11T03:34:34;102029.84;;;-1.81;100.00
77017;BME280;65949;53.132;17.930;2024-01-11T03:37:00;102037.19;;;-1.79;100.00
77017;BME280;65949;53.132;17.930;2024-01-11T03:39:27;102030.75;;;-1.78;100.00
77017;BME280;65949;53.132;17.930;2024-01-11T03:41:54;102028.14;;;-1.77;100.00
77017;BME280;65949;53.132;17.930;2024-01-11T03:44:22;102038.38;;;-1.76;100.00
77017;BME280;65949;53.132;17.930;2024-01-11T03:46:48;102038.97;;;-1.74;100.00
77017;BME280;65949;53.132;17.930;2024-01-11T03:49:15;102038.44;;;-1.72;100.00
77017;BME280;65949;53.132;17.930;2024-01-11T03:51:41;102031.02;;;-1.72;100.00
77017;BME280;65949;53.132;17.930;2024-01-11T03:54:08;102023.73;;;-1.70;100.00
77017;BME280;65949;53.132;17.930;2024-01-11T03:56:38;102006.02;;;-1.68;100.00
77017;BME280;65949;53.132;17.930;2024-01-11T03:59:05;101997.57;;;-1.67;100.00
77017;BME280;65949;53.132;17.930;2024-01-11T04:01:33;101997.11;;;-1.66;100.00
77017;BME280;65949;53.132;17.930;2024-01-11T04:04:00;101996.36;;;-1.65;100.00
77017;BME280;65949;53.132;17.930;2024-01-11T04:06:27;102000.72;;;-1.64;100.00
77017;BME280;65949;53.132;17.930;2024-01-11T04:08:54;101986.79;;;-1.63;100.00
77017;BME280;65949;53.132;17.930;2024-01-11T04:11:21;101970.54;;;-1.62;100.00
77017;BME280;65949;53.132;17.930;2024-01-11T04:13:48;101954.10;;;-1.62;100.00
77017;BME280;65949;53.132;17.930;2024-01-11T04:16:15;101941.32;;;-1.62;100.00
77017;BME280;65949;53.132;17.930;2024-01-11T04:18:42;101939.98;;;-1.60;100.00
77017;BME280;65949;53.132;17.930;2024-01-11T04:21:20;101930.55;;;-1.59;100.00
77017;BME280;65949;53.132;17.930;2024-01-11T04:23:47;101934.60;;;-1.59;100.00
77017;BME280;65949;53.132;17.930;2024-01-11T04:26:14;101941.75;;;-1.57;100.00
77017;BME280;65949;53.132;17.930;2024-01-11T04:28:41;101942.48;;;-1.56;100.00
77017;BME280;65949;53.132;17.930;2024-01-11T04:31:08;101944.89;;;-1.54;100.00
77017;BME280;65949;53.132;17.930;2024-01-11T04:33:35;101943.72;;;-1.53;100.00
77017;BME280;65949;53.132;17.930;2024-01-11T04:36:01;101947.59;;;-1.52;100.00
77017;BME280;65949;53.132;17.930;2024-01-11T04:38:28;101927.21;;;-1.51;100.00
77017;BME280;65949;53.132;17.930;2024-01-11T04:40:54;101922.02;;;-1.51;100.00
77017;BME280;65949;53.132;17.930;2024-01-11T04:43:21;101928.39;;;-1.49;100.00
77017;BME280;65949;53.132;17.930;2024-01-11T04:45:47;101938.48;;;-1.48;100.00
77017;BME280;65949;53.132;17.930;2024-01-11T04:48:14;101934.50;;;-1.47;100.00
77017;BME280;65949;53.132;17.930;2024-01-11T04:50:41;101938.11;;;-1.46;100.00
77017;BME280;65949;53.132;17.930;2024-01-11T04:53:07;101938.87;;;-1.45;100.00
77017;BME280;65949;53.132;17.930;2024-01-11T04:55:34;101932.49;;;-1.42;100.00
77017;BME280;65949;53.132;17.930;2024-01-11T04:58:00;101928.27;;;-1.41;100.00
77017;BME280;65949;53.132;17.930;2024-01-11T05:00:27;101916.17;;;-1.39;100.00
77017;BME280;65949;53.132;17.930;2024-01-11T05:02:54;101920.09;;;-1.37;100.00
77017;BME280;65949;53.132;17.930;2024-01-11T05:05:21;101928.96;;;-1.35;100.00
77017;BME280;65949;53.132;17.930;2024-01-11T05:07:48;101939.75;;;-1.34;100.00
77017;BME280;65949;53.132;17.930;2024-01-11T05:10:14;101937.39;;;-1.33;100.00
77017;BME280;65949;53.132;17.930;2024-01-11T05:12:41;101931.24;;;-1.31;100.00
77017;BME280;65949;53.132;17.930;2024-01-11T05:15:08;101926.82;;;-1.29;100.00
77017;BME280;65949;53.132;17.930;2024-01-11T05:17:35;101922.27;;;-1.28;100.00
77017;BME280;65949;53.132;17.930;2024-01-11T05:20:01;101915.34;;;-1.27;100.00
77017;BME280;65949;53.132;17.930;2024-01-11T05:22:28;101915.06;;;-1.26;100.00
77017;BME280;65949;53.132;17.930;2024-01-11T05:24:55;101915.05;;;-1.24;100.00
77017;BME280;65949;53.132;17.930;2024-01-11T05:27:21;101914.23;;;-1.23;100.00
77017;BME280;65949;53.132;17.930;2024-01-11T05:29:48;101914.03;;;-1.20;100.00
77017;BME280;65949;53.132;17.930;2024-01-11T05:32:14;101917.09;;;-1.19;100.00
77017;BME280;65949;53.132;17.930;2024-01-11T05:34:41;101914.19;;;-1.17;100.00
77017;BME280;65949;53.132;17.930;2024-01-11T05:37:08;101914.24;;;-1.16;100.00
77017;BME280;65949;53.132;17.930;2024-01-11T05:39:34;101920.23;;;-1.14;100.00
77017;BME280;65949;53.132;17.930;2024-01-11T05:42:01;101917.01;;;-1.12;100.00
77017;BME280;65949;53.132;17.930;2024-01-11T05:44:28;101920.35;;;-1.12;100.00
77017;BME280;65949;53.132;17.930;2024-01-11T05:46:55;101922.24;;;-1.10;100.00
77017;BME280;65949;53.132;17.930;2024-01-11T05:49:21;101909.85;;;-1.09;100.00
77017;BME280;65949;53.132;17.930;2024-01-11T05:51:48;101926.02;;;-1.07;100.00
77017;BME280;65949;53.132;17.930;2024-01-11T05:54:14;101917.23;;;-1.06;100.00
77017;BME280;65949;53.132;17.930;2024-01-11T05:56:41;101910.21;;;-1.06;100.00
77017;BME280;65949;53.132;17.930;2024-01-11T05:59:07;101902.73;;;-1.04;100.00
77017;BME280;65949;53.132;17.930;2024-01-11T06:01:40;101900.35;;;-1.02;100.00
77017;BME280;65949;53.132;17.930;2024-01-11T06:04:07;101889.14;;;-1.01;100.00
77017;BME280;65949;53.132;17.930;2024-01-11T06:06:33;101885.44;;;-1.00;100.00
77017;BME280;65949;53.132;17.930;2024-01-11T06:09:00;101887.36;;;-0.99;100.00
77017;BME280;65949;53.132;17.930;2024-01-11T06:11:26;101888.14;;;-0.98;100.00
77017;BME280;65949;53.132;17.930;2024-01-11T06:13:53;101892.34;;;-0.97;100.00
77017;BME280;65949;53.132;17.930;2024-01-11T06:16:20;101894.64;;;-0.97;100.00
77017;BME280;65949;53.132;17.930;2024-01-11T06:18:47;101891.33;;;-0.96;100.00
77017;BME280;65949;53.132;17.930;2024-01-11T06:21:13;101887.86;;;-0.95;100.00
77017;BME280;65949;53.132;17.930;2024-01-11T06:23:41;101886.06;;;-0.94;100.00
77017;BME280;65949;53.132;17.930;2024-01-11T06:26:08;101886.42;;;-0.93;100.00
77017;BME280;65949;53.132;17.930;2024-01-11T06:28:35;101883.48;;;-0.92;100.00
77017;BME280;65949;53.132;17.930;2024-01-11T06:31:01;101882.80;;;-0.90;100.00
77017;BME280;65949;53.132;17.930;2024-01-11T06:33:28;101879.31;;;-0.90;100.00
77017;BME280;65949;53.132;17.930;2024-01-11T06:35:55;101882.98;;;-0.89;100.00
77017;BME280;65949;53.132;17.930;2024-01-11T06:38:22;101893.14;;;-0.88;100.00
77017;BME280;65949;53.132;17.930;2024-01-11T06:40:49;101888.27;;;-0.87;100.00
77017;BME280;65949;53.132;17.930;2024-01-11T06:43:15;101880.61;;;-0.87;100.00
77017;BME280;65949;53.132;17.930;2024-01-11T06:45:42;101882.25;;;-0.87;100.00
77017;BME280;65949;53.132;17.930;2024-01-11T06:48:09;101881.27;;;-0.86;100.00
77017;BME280;65949;53.132;17.930;2024-01-11T06:50:36;101874.10;;;-0.85;100.00
77017;BME280;65949;53.132;17.930;2024-01-11T06:53:02;101870.81;;;-0.85;100.00
77017;BME280;65949;53.132;17.930;2024-01-11T06:55:29;101870.66;;;-0.83;100.00
77017;BME280;65949;53.132;17.930;2024-01-11T06:57:56;101862.73;;;-0.82;100.00
77017;BME280;65949;53.132;17.930;2024-01-11T07:00:24;101866.36;;;-0.81;100.00
77017;BME280;65949;53.132;17.930;2024-01-11T07:02:51;101874.36;;;-0.81;100.00
77017;BME280;65949;53.132;17.930;2024-01-11T07:05:19;101871.42;;;-0.81;100.00
77017;BME280;65949;53.132;17.930;2024-01-11T07:07:46;101867.98;;;-0.80;100.00
77017;BME280;65949;53.132;17.930;2024-01-11T07:10:13;101870.16;;;-0.78;100.00
77017;BME280;65949;53.132;17.930;2024-01-11T07:12:39;101872.95;;;-0.77;100.00
77017;BME280;65949;53.132;17.930;2024-01-11T07:15:09;101872.62;;;-0.75;100.00
77017;BME280;65949;53.132;17.930;2024-01-11T07:17:36;101877.55;;;-0.74;100.00
77017;BME280;65949;53.132;17.930;2024-01-11T07:20:03;101883.52;;;-0.72;100.00
77017;BME280;65949;53.132;17.930;2024-01-11T07:22:30;101879.25;;;-0.70;100.00
77017;BME280;65949;53.132;17.930;2024-01-11T07:24:57;101870.58;;;-0.69;100.00
77017;BME280;65949;53.132;17.930;2024-01-11T07:27:24;101872.61;;;-0.67;100.00
77017;BME280;65949;53.132;17.930;2024-01-11T07:29:51;101876.41;;;-0.65;100.00
77017;BME280;65949;53.132;17.930;2024-01-11T07:32:18;101871.19;;;-0.64;100.00
77017;BME280;65949;53.132;17.930;2024-01-11T07:34:44;101859.80;;;-0.63;100.00
77017;BME280;65949;53.132;17.930;2024-01-11T07:37:11;101859.48;;;-0.62;100.00
77017;BME280;65949;53.132;17.930;2024-01-11T07:39:38;101854.58;;;-0.61;100.00
77017;BME280;65949;53.132;17.930;2024-01-11T07:42:04;101848.99;;;-0.59;100.00
77017;BME280;65949;53.132;17.930;2024-01-11T07:44:31;101849.31;;;-0.57;100.00
77017;BME280;65949;53.132;17.930;2024-01-11T07:46:57;101849.98;;;-0.55;100.00
77017;BME280;65949;53.132;17.930;2024-01-11T07:49:24;101845.95;;;-0.54;100.00
77017;BME280;65949;53.132;17.930;2024-01-11T07:51:51;101849.34;;;-0.53;100.00
77017;BME280;65949;53.132;17.930;2024-01-11T07:54:17;101848.08;;;-0.50;100.00
77017;BME280;65949;53.132;17.930;2024-01-11T07:56:44;101851.72;;;-0.46;100.00
77017;BME280;65949;53.132;17.930;2024-01-11T07:59:10;101848.23;;;-0.43;100.00
77017;BME280;65949;53.132;17.930;2024-01-11T08:01:41;101849.32;;;-0.41;100.00
77017;BME280;65949;53.132;17.930;2024-01-11T08:04:07;101857.30;;;-0.38;100.00
77017;BME280;65949;53.132;17.930;2024-01-11T08:06:34;101856.92;;;-0.36;100.00
77017;BME280;65949;53.132;17.930;2024-01-11T08:09:01;101859.51;;;-0.33;100.00
77017;BME280;65949;53.132;17.930;2024-01-11T08:11:27;101856.17;;;-0.31;100.00
77017;BME280;65949;53.132;17.930;2024-01-11T08:13:55;101857.04;;;-0.27;100.00
77017;BME280;65949;53.132;17.930;2024-01-11T08:16:22;101865.63;;;-0.25;100.00
77017;BME280;65949;53.132;17.930;2024-01-11T08:18:48;101873.90;;;-0.22;100.00
77017;BME280;65949;53.132;17.930;2024-01-11T08:21:15;101867.97;;;-0.19;100.00
77017;BME280;65949;53.132;17.930;2024-01-11T08:23:42;101866.71;;;-0.17;100.00
77017;BME280;65949;53.132;17.930;2024-01-11T08:26:14;101872.68;;;-0.13;100.00
77017;BME280;65949;53.132;17.930;2024-01-11T08:28:42;101876.23;;;-0.10;100.00
77017;BME280;65949;53.132;17.930;2024-01-11T08:31:09;101881.91;;;-0.05;100.00
77017;BME280;65949;53.132;17.930;2024-01-11T08:33:35;101880.73;;;-0.02;100.00
77017;BME280;65949;53.132;17.930;2024-01-11T08:36:06;101869.02;;;0.01;100.00
77017;BME280;65949;53.132;17.930;2024-01-11T08:38:33;101858.83;;;0.04;100.00
77017;BME280;65949;53.132;17.930;2024-01-11T08:40:59;101865.45;;;0.06;100.00
77017;BME280;65949;53.132;17.930;2024-01-11T08:43:27;101867.33;;;0.08;100.00
77017;BME280;65949;53.132;17.930;2024-01-11T08:45:53;101868.13;;;0.10;100.00
77017;BME280;65949;53.132;17.930;2024-01-11T08:48:20;101867.79;;;0.12;100.00
77017;BME280;65949;53.132;17.930;2024-01-11T08:50:47;101870.93;;;0.14;100.00
77017;BME280;65949;53.132;17.930;2024-01-11T08:53:14;101864.27;;;0.16;100.00
77017;BME280;65949;53.132;17.930;2024-01-11T08:55:42;101869.73;;;0.18;100.00
77017;BME280;65949;53.132;17.930;2024-01-11T08:58:09;101875.83;;;0.20;100.00
77017;BME280;65949;53.132;17.930;2024-01-11T09:00:37;101879.63;;;0.21;99.99
77017;BME280;65949;53.132;17.930;2024-01-11T09:03:04;101881.16;;;0.23;99.99
77017;BME280;65949;53.132;17.930;2024-01-11T09:05:31;101888.70;;;0.24;100.00
77017;BME280;65949;53.132;17.930;2024-01-11T09:07:58;101897.97;;;0.27;100.00
77017;BME280;65949;53.132;17.930;2024-01-11T09:10:25;101903.16;;;0.30;100.00
77017;BME280;65949;53.132;17.930;2024-01-11T09:12:52;101898.94;;;0.33;100.00
77017;BME280;65949;53.132;17.930;2024-01-11T09:15:20;101904.45;;;0.36;99.99
77017;BME280;65949;53.132;17.930;2024-01-11T09:17:47;101904.99;;;0.39;99.96
77017;BME280;65949;53.132;17.930;2024-01-11T09:20:14;101896.55;;;0.41;99.98
77017;BME280;65949;53.132;17.930;2024-01-11T09:22:41;101894.78;;;0.43;99.95
77017;BME280;65949;53.132;17.930;2024-01-11T09:25:07;101892.42;;;0.46;100.00
77017;BME280;65949;53.132;17.930;2024-01-11T09:27:34;101892.30;;;0.49;99.85
77017;BME280;65949;53.132;17.930;2024-01-11T09:30:02;101896.73;;;0.51;99.91
77017;BME280;65949;53.132;17.930;2024-01-11T09:32:28;101895.35;;;0.53;99.81
77017;BME280;65949;53.132;17.930;2024-01-11T09:34:57;101894.10;;;0.54;99.70
77017;BME280;65949;53.132;17.930;2024-01-11T09:37:24;101891.03;;;0.58;99.61
77017;BME280;65949;53.132;17.930;2024-01-11T09:39:50;101893.30;;;0.61;99.63
77017;BME280;65949;53.132;17.930;2024-01-11T09:42:18;101892.90;;;0.63;99.70
77017;BME280;65949;53.132;17.930;2024-01-11T09:44:46;101889.48;;;0.64;99.44
77017;BME280;65949;53.132;17.930;2024-01-11T09:47:15;101888.48;;;0.66;99.41
77017;BME280;65949;53.132;17.930;2024-01-11T09:49:48;101886.34;;;0.67;99.41
77017;BME280;65949;53.132;17.930;2024-01-11T09:52:19;101887.98;;;0.67;99.31
77017;BME280;65949;53.132;17.930;2024-01-11T09:54:46;101883.20;;;0.67;99.28
77017;BME280;65949;53.132;17.930;2024-01-11T09:57:16;101883.75;;;0.67;99.36
77017;BME280;65949;53.132;17.930;2024-01-11T09:59:49;101887.48;;;0.69;99.38
77017;BME280;65949;53.132;17.930;2024-01-11T10:02:20;101886.50;;;0.70;99.29
77017;BME280;65949;53.132;17.930;2024-01-11T10:04:49;101886.64;;;0.73;99.34
77017;BME280;65949;53.132;17.930;2024-01-11T10:07:16;101878.83;;;0.78;99.09
77017;BME280;65949;53.132;17.930;2024-01-11T10:09:47;101873.88;;;0.81;99.02
77017;BME280;65949;53.132;17.930;2024-01-11T10:12:14;101871.30;;;0.86;99.03
77017;BME280;65949;53.132;17.930;2024-01-11T10:14:40;101876.36;;;0.95;98.89
77017;BME280;65949;53.132;17.930;2024-01-11T10:17:07;101883.33;;;1.02;98.44
77017;BME280;65949;53.132;17.930;2024-01-11T10:19:34;101876.47;;;1.07;98.06
77017;BME280;65949;53.132;17.930;2024-01-11T10:22:00;101873.09;;;1.11;97.83
77017;BME280;65949;53.132;17.930;2024-01-11T10:24:27;101880.33;;;1.12;97.79
77017;BME280;65949;53.132;17.930;2024-01-11T10:26:58;101884.65;;;1.12;97.64
77017;BME280;65949;53.132;17.930;2024-01-11T10:29:30;101880.70;;;1.10;97.48
77017;BME280;65949;53.132;17.930;2024-01-11T10:31:57;101884.81;;;1.10;97.61
77017;BME280;65949;53.132;17.930;2024-01-11T10:34:24;101881.83;;;1.09;97.43
77017;BME280;65949;53.132;17.930;2024-01-11T10:36:51;101877.72;;;1.08;97.25
77017;BME280;65949;53.132;17.930;2024-01-11T10:39:25;101871.63;;;1.07;97.32
77017;BME280;65949;53.132;17.930;2024-01-11T10:42:13;101867.02;;;1.05;97.23
77017;BME280;65949;53.132;17.930;2024-01-11T10:44:43;101868.67;;;1.03;97.36
77017;BME280;65949;53.132;17.930;2024-01-11T10:47:13;101863.89;;;1.01;97.63
77017;BME280;65949;53.132;17.930;2024-01-11T10:49:43;101863.50;;;0.98;97.46
77017;BME280;65949;53.132;17.930;2024-01-11T10:52:12;101863.66;;;0.97;97.66
77017;BME280;65949;53.132;17.930;2024-01-11T10:54:41;101861.46;;;0.95;97.69
77017;BME280;65949;53.132;17.930;2024-01-11T10:57:09;101865.88;;;0.95;97.72
77017;BME280;65949;53.132;17.930;2024-01-11T10:59:37;101870.50;;;0.97;97.55
77017;BME280;65949;53.132;17.930;2024-01-11T11:02:05;101874.23;;;0.99;97.51
77017;BME280;65949;53.132;17.930;2024-01-11T11:04:38;101870.85;;;1.01;97.52
77017;BME280;65949;53.132;17.930;2024-01-11T11:07:07;101871.11;;;1.02;97.41
77017;BME280;65949;53.132;17.930;2024-01-11T11:09:35;101867.88;;;1.04;97.42
77017;BME280;65949;53.132;17.930;2024-01-11T11:12:02;101864.20;;;1.06;97.21
77017;BME280;65949;53.132;17.930;2024-01-11T11:14:31;101860.48;;;1.07;97.31
77017;BME280;65949;53.132;17.930;2024-01-11T11:17:01;101857.05;;;1.09;97.21
77017;BME280;65949;53.132;17.930;2024-01-11T11:19:28;101852.46;;;1.10;97.01
77017;BME280;65949;53.132;17.930;2024-01-11T11:21:54;101845.02;;;1.13;96.99
77017;BME280;65949;53.132;17.930;2024-01-11T11:24:21;101846.65;;;1.13;97.08
77017;BME280;65949;53.132;17.930;2024-01-11T11:26:48;101846.57;;;1.14;96.69
77017;BME280;65949;53.132;17.930;2024-01-11T11:29:17;101843.35;;;1.15;96.89
77017;BME280;65949;53.132;17.930;2024-01-11T11:31:45;101840.61;;;1.17;96.77
77017;BME280;65949;53.132;17.930;2024-01-11T11:34:14;101831.98;;;1.18;96.79
77017;BME280;65949;53.132;17.930;2024-01-11T11:36:40;101831.50;;;1.19;96.76
77017;BME280;65949;53.132;17.930;2024-01-11T11:39:10;101834.48;;;1.20;96.54
77017;BME280;65949;53.132;17.930;2024-01-11T11:41:40;101833.96;;;1.20;96.49
77017;BME280;65949;53.132;17.930;2024-01-11T11:44:11;101830.41;;;1.20;96.49
77017;BME280;65949;53.132;17.930;2024-01-11T11:46:39;101828.15;;;1.21;96.40
77017;BME280;65949;53.132;17.930;2024-01-11T11:49:06;101828.02;;;1.21;96.50
77017;BME280;65949;53.132;17.930;2024-01-11T11:51:34;101825.33;;;1.21;96.38
77017;BME280;65949;53.132;17.930;2024-01-11T11:54:01;101829.54;;;1.20;96.40
77017;BME280;65949;53.132;17.930;2024-01-11T11:56:29;101829.77;;;1.19;96.36
77017;BME280;65949;53.132;17.930;2024-01-11T11:58:57;101820.97;;;1.20;96.40
77017;BME280;65949;53.132;17.930;2024-01-11T12:01:23;101820.83;;;1.21;96.38
77017;BME280;65949;53.132;17.930;2024-01-11T12:03:50;101822.69;;;1.21;96.08
77017;BME280;65949;53.132;17.930;2024-01-11T12:06:20;101822.19;;;1.23;96.28
77017;BME280;65949;53.132;17.930;2024-01-11T12:08:52;101819.33;;;1.24;96.20
77017;BME280;65949;53.132;17.930;2024-01-11T12:11:21;101818.23;;;1.23;95.97
77017;BME280;65949;53.132;17.930;2024-01-11T12:13:48;101820.04;;;1.27;95.95
77017;BME280;65949;53.132;17.930;2024-01-11T12:16:15;101812.22;;;1.31;95.97
77017;BME280;65949;53.132;17.930;2024-01-11T12:18:42;101803.35;;;1.37;95.82
77017;BME280;65949;53.132;17.930;2024-01-11T12:21:09;101798.85;;;1.41;95.36
77017;BME280;65949;53.132;17.930;2024-01-11T12:23:38;101794.05;;;1.42;94.99
77017;BME280;65949;53.132;17.930;2024-01-11T12:26:08;101791.65;;;1.44;94.85
77017;BME280;65949;53.132;17.930;2024-01-11T12:28:39;101792.11;;;1.44;95.01
77017;BME280;65949;53.132;17.930;2024-01-11T12:31:07;101787.13;;;1.45;94.89
77017;BME280;65949;53.132;17.930;2024-01-11T12:33:34;101783.03;;;1.44;94.57
77017;BME280;65949;53.132;17.930;2024-01-11T12:36:01;101779.02;;;1.45;94.73
77017;BME280;65949;53.132;17.930;2024-01-11T12:38:30;101784.25;;;1.44;94.46